sensor_id;sensor_type;location;lat;lon;timestamp;temperature;humidity
65995;HTU21D;52764;51.036;5.852;2023-03-20T00:00:38;13.01;65.12
65995;HTU21D;52764;51.036;5.852;2023-03-20T00:03:05;13.11;65.08
65995;HTU21D;52764;51.036;5.852;2023-03-20T00:05:31;13.11;65.19
65995;HTU21D;52764;51.036;5.852;2023-03-20T00:07:57;13.12;65.23
65995;HTU21D;52764;51.036;5.852;2023-03-20T00:10:30;13.14;64.82
65995;HTU21D;52764;51.036;5.852;2023-03-20T00:12:57;13.15;64.95
65995;HTU21D;52764;51.036;5.852;2023-03-20T00:15:28;13.16;64.30
65995;HTU21D;52764;51.036;5.852;2023-03-20T00:17:54;13.09;71.87
65995;HTU21D;52764;51.036;5.852;2023-03-20T00:20:21;13.12;63.63
65995;HTU21D;52764;51.036;5.852;2023-03-20T00:22:47;13.09;63.33
65995;HTU21D;52764;51.036;5.852;2023-03-20T00:25:19;13.04;63.30
65995;HTU21D;52764;51.036;5.852;2023-03-20T00:27:46;13.05;70.88
65995;HTU21D;52764;51.036;5.852;2023-03-20T00:30:19;13.06;63.85
65995;HTU21D;52764;51.036;5.852;2023-03-20T00:32:48;13.03;63.63
65995;HTU21D;52764;51.036;5.852;2023-03-20T00:35:20;12.94;63.59
65995;HTU21D;52764;51.036;5.852;2023-03-20T00:37:47;12.86;63.33
65995;HTU21D;52764;51.036;5.852;2023-03-20T00:40:13;12.77;63.38
65995;HTU21D;52764;51.036;5.852;2023-03-20T00:42:43;12.78;63.53
65995;HTU21D;52764;51.036;5.852;2023-03-20T00:45:14;12.72;63.26
65995;HTU21D;52764;51.036;5.852;2023-03-20T00:47:42;12.71;62.75
65995;HTU21D;52764;51.036;5.852;2023-03-20T00:50:20;12.63;62.44
65995;HTU21D;52764;51.036;5.852;2023-03-20T00:52:48;12.50;62.31
65995;HTU21D;52764;51.036;5.852;2023-03-20T00:55:14;12.44;62.21
65995;HTU21D;52764;51.036;5.852;2023-03-20T00:57:56;12.18;62.11
65995;HTU21D;52764;51.036;5.852;2023-03-20T01:02:54;12.23;62.69
65995;HTU21D;52764;51.036;5.852;2023-03-20T01:05:24;12.19;63.01
65995;HTU21D;52764;51.036;5.852;2023-03-20T01:07:52;12.16;63.36
65995;HTU21D;52764;51.036;5.852;2023-03-20T01:10:18;12.11;63.57
65995;HTU21D;52764;51.036;5.852;2023-03-20T01:12:45;12.07;63.82
65995;HTU21D;52764;51.036;5.852;2023-03-20T01:15:24;12.03;64.09
65995;HTU21D;52764;51.036;5.852;2023-03-20T01:17:52;11.99;64.27
65995;HTU21D;52764;51.036;5.852;2023-03-20T01:20:22;11.94;64.53
65995;HTU21D;52764;51.036;5.852;2023-03-20T01:22:48;11.90;64.79
65995;HTU21D;52764;51.036;5.852;2023-03-20T01:25:14;11.85;65.16
65995;HTU21D;52764;51.036;5.852;2023-03-20T01:27:43;11.81;65.51
65995;HTU21D;52764;51.036;5.852;2023-03-20T01:30:24;11.76;65.75
65995;HTU21D;52764;51.036;5.852;2023-03-20T01:32:50;11.71;65.85
65995;HTU21D;52764;51.036;5.852;2023-03-20T01:35:21;11.69;66.01
65995;HTU21D;52764;51.036;5.852;2023-03-20T01:37:48;11.62;66.27
65995;HTU21D;52764;51.036;5.852;2023-03-20T01:40:32;11.56;66.24
65995;HTU21D;52764;51.036;5.852;2023-03-20T01:43:02;11.51;66.33
65995;HTU21D;52764;51.036;5.852;2023-03-20T01:45:39;11.45;66.47
65995;HTU21D;52764;51.036;5.852;2023-03-20T01:48:18;11.42;77.08
65995;HTU21D;52764;51.036;5.852;2023-03-20T01:50:43;11.39;66.82
65995;HTU21D;52764;51.036;5.852;2023-03-20T01:53:24;11.39;66.77
65995;HTU21D;52764;51.036;5.852;2023-03-20T01:55:59;11.33;66.89
65995;HTU21D;52764;51.036;5.852;2023-03-20T01:58:40;11.29;65.45
65995;HTU21D;52764;51.036;5.852;2023-03-20T02:01:10;11.19;66.91
65995;HTU21D;52764;51.036;5.852;2023-03-20T02:03:43;11.13;66.99
65995;HTU21D;52764;51.036;5.852;2023-03-20T02:06:21;11.09;67.33
65995;HTU21D;52764;51.036;5.852;2023-03-20T02:09:20;11.04;67.42
65995;HTU21D;52764;51.036;5.852;2023-03-20T02:11:48;11.02;67.36
65995;HTU21D;52764;51.036;5.852;2023-03-20T02:14:17;11.30;67.52
65995;HTU21D;52764;51.036;5.852;2023-03-20T02:17:07;10.96;67.59
65995;HTU21D;52764;51.036;5.852;2023-03-20T02:52:55;10.66;68.87
65995;HTU21D;52764;51.036;5.852;2023-03-20T02:58:08;10.51;69.68
65995;HTU21D;52764;51.036;5.852;2023-03-20T03:04:26;10.35;70.56
65995;HTU21D;52764;51.036;5.852;2023-03-20T03:06:38;10.34;70.68
65995;HTU21D;52764;51.036;5.852;2023-03-20T03:09:14;10.31;70.91
65995;HTU21D;52764;51.036;5.852;2023-03-20T03:11:49;10.35;71.02
65995;HTU21D;52764;51.036;5.852;2023-03-20T03:17:19;10.38;71.22
65995;HTU21D;52764;51.036;5.852;2023-03-20T03:19:57;10.42;71.20
65995;HTU21D;52764;51.036;5.852;2023-03-20T03:22:25;10.44;71.09
65995;HTU21D;52764;51.036;5.852;2023-03-20T03:24:53;10.44;71.24
65995;HTU21D;52764;51.036;5.852;2023-03-20T03:27:34;10.43;71.56
65995;HTU21D;52764;51.036;5.852;2023-03-20T03:30:07;10.41;71.54
65995;HTU21D;52764;51.036;5.852;2023-03-20T03:32:48;10.41;71.77
65995;HTU21D;52764;51.036;5.852;2023-03-20T03:35:18;10.42;71.49
65995;HTU21D;52764;51.036;5.852;2023-03-20T03:38:03;10.42;71.35
65995;HTU21D;52764;51.036;5.852;2023-03-20T03:40:45;10.41;71.23
65995;HTU21D;52764;51.036;5.852;2023-03-20T03:43:33;10.37;71.23
65995;HTU21D;52764;51.036;5.852;2023-03-20T03:48:38;10.23;71.28
65995;HTU21D;52764;51.036;5.852;2023-03-20T03:51:10;10.34;71.22
65995;HTU21D;52764;51.036;5.852;2023-03-20T03:54:01;10.36;71.21
65995;HTU21D;52764;51.036;5.852;2023-03-20T03:56:31;10.30;71.23
65995;HTU21D;52764;51.036;5.852;2023-03-20T03:59:02;10.29;71.10
65995;HTU21D;52764;51.036;5.852;2023-03-20T04:01:31;10.27;71.13
65995;HTU21D;52764;51.036;5.852;2023-03-20T04:04:03;10.25;70.03
65995;HTU21D;52764;51.036;5.852;2023-03-20T04:06:33;10.22;71.09
65995;HTU21D;52764;51.036;5.852;2023-03-20T04:08:58;10.20;71.13
65995;HTU21D;52764;51.036;5.852;2023-03-20T04:11:26;10.18;71.16
65995;HTU21D;52764;51.036;5.852;2023-03-20T04:13:55;10.15;71.23
65995;HTU21D;52764;51.036;5.852;2023-03-20T04:16:22;10.16;71.23
65995;HTU21D;52764;51.036;5.852;2023-03-20T04:18:49;10.15;71.20
65995;HTU21D;52764;51.036;5.852;2023-03-20T04:21:15;10.15;71.16
65995;HTU21D;52764;51.036;5.852;2023-03-20T04:23:42;10.18;71.28
65995;HTU21D;52764;51.036;5.852;2023-03-20T04:26:09;10.23;71.37
65995;HTU21D;52764;51.036;5.852;2023-03-20T04:28:35;10.26;71.34
65995;HTU21D;52764;51.036;5.852;2023-03-20T04:31:16;10.28;71.33
65995;HTU21D;52764;51.036;5.852;2023-03-20T04:33:52;10.30;71.13
65995;HTU21D;52764;51.036;5.852;2023-03-20T04:36:31;10.29;70.81
65995;HTU21D;52764;51.036;5.852;2023-03-20T04:38:57;10.31;70.83
65995;HTU21D;52764;51.036;5.852;2023-03-20T04:41:24;10.31;70.83
65995;HTU21D;52764;51.036;5.852;2023-03-20T04:43:53;10.30;70.75
65995;HTU21D;52764;51.036;5.852;2023-03-20T04:46:18;10.34;70.85
65995;HTU21D;52764;51.036;5.852;2023-03-20T04:48:44;10.38;70.83
65995;HTU21D;52764;51.036;5.852;2023-03-20T04:51:10;10.41;70.62
65995;HTU21D;52764;51.036;5.852;2023-03-20T04:53:44;10.44;70.48
65995;HTU21D;52764;51.036;5.852;2023-03-20T04:56:11;10.45;70.55
65995;HTU21D;52764;51.036;5.852;2023-03-20T04:58:38;10.46;70.44
65995;HTU21D;52764;51.036;5.852;2023-03-20T05:01:03;10.46;70.37
65995;HTU21D;52764;51.036;5.852;2023-03-20T05:03:29;10.46;70.46
65995;HTU21D;52764;51.036;5.852;2023-03-20T05:05:55;10.44;70.57
65995;HTU21D;52764;51.036;5.852;2023-03-20T05:08:21;10.43;70.57
65995;HTU21D;52764;51.036;5.852;2023-03-20T05:10:51;10.41;70.56
65995;HTU21D;52764;51.036;5.852;2023-03-20T05:13:37;10.37;70.48
65995;HTU21D;52764;51.036;5.852;2023-03-20T05:16:21;10.34;70.28
65995;HTU21D;52764;51.036;5.852;2023-03-20T05:19:02;10.34;70.19
65995;HTU21D;52764;51.036;5.852;2023-03-20T05:21:57;10.29;70.23
65995;HTU21D;52764;51.036;5.852;2023-03-20T05:24:43;10.29;70.11
65995;HTU21D;52764;51.036;5.852;2023-03-20T05:27:30;10.42;70.15
65995;HTU21D;52764;51.036;5.852;2023-03-20T05:30:22;10.30;70.10
65995;HTU21D;52764;51.036;5.852;2023-03-20T05:33:06;10.31;70.00
65995;HTU21D;52764;51.036;5.852;2023-03-20T05:35:53;10.33;70.07
65995;HTU21D;52764;51.036;5.852;2023-03-20T05:38:32;10.34;83.44
65995;HTU21D;52764;51.036;5.852;2023-03-20T05:41:18;10.36;69.92
65995;HTU21D;52764;51.036;5.852;2023-03-20T05:44:15;10.36;83.12
65995;HTU21D;52764;51.036;5.852;2023-03-20T05:47:01;10.36;69.73
65995;HTU21D;52764;51.036;5.852;2023-03-20T05:49:47;10.35;69.66
65995;HTU21D;52764;51.036;5.852;2023-03-20T05:52:33;10.30;69.76
65995;HTU21D;52764;51.036;5.852;2023-03-20T05:55:05;10.30;69.65
65995;HTU21D;52764;51.036;5.852;2023-03-20T05:57:47;10.28;69.63
65995;HTU21D;52764;51.036;5.852;2023-03-20T06:00:37;10.30;69.58
65995;HTU21D;52764;51.036;5.852;2023-03-20T06:03:21;10.33;69.42
65995;HTU21D;52764;51.036;5.852;2023-03-20T06:06:00;10.33;69.29
65995;HTU21D;52764;51.036;5.852;2023-03-20T06:08:26;10.34;69.30
65995;HTU21D;52764;51.036;5.852;2023-03-20T06:10:53;10.35;69.32
65995;HTU21D;52764;51.036;5.852;2023-03-20T06:13:19;10.37;69.33
65995;HTU21D;52764;51.036;5.852;2023-03-20T06:15:45;10.42;69.45
65995;HTU21D;52764;51.036;5.852;2023-03-20T06:18:15;10.48;69.26
65995;HTU21D;52764;51.036;5.852;2023-03-20T06:20:41;10.51;81.94
65995;HTU21D;52764;51.036;5.852;2023-03-20T06:23:07;10.52;69.13
65995;HTU21D;52764;51.036;5.852;2023-03-20T06:25:33;-19.97;69.13
65995;HTU21D;52764;51.036;5.852;2023-03-20T06:27:59;10.54;69.16
65995;HTU21D;52764;51.036;5.852;2023-03-20T06:30:25;10.57;65.78
65995;HTU21D;52764;51.036;5.852;2023-03-20T06:32:52;10.65;68.68
65995;HTU21D;52764;51.036;5.852;2023-03-20T06:35:20;10.70;80.48
65995;HTU21D;52764;51.036;5.852;2023-03-20T06:37:48;10.69;68.17
65995;HTU21D;52764;51.036;5.852;2023-03-20T06:40:19;10.67;68.46
65995;HTU21D;52764;51.036;5.852;2023-03-20T06:42:46;10.71;68.34
65995;HTU21D;52764;51.036;5.852;2023-03-20T06:45:13;10.73;68.23
65995;HTU21D;52764;51.036;5.852;2023-03-20T06:47:57;10.81;68.12
65995;HTU21D;52764;51.036;5.852;2023-03-20T06:50:23;10.83;68.03
65995;HTU21D;52764;51.036;5.852;2023-03-20T06:52:49;10.84;67.97
65995;HTU21D;52764;51.036;5.852;2023-03-20T06:55:48;10.92;67.86
65995;HTU21D;52764;51.036;5.852;2023-03-20T06:58:15;10.97;67.84
65995;HTU21D;52764;51.036;5.852;2023-03-20T07:00:42;11.01;67.80
65995;HTU21D;52764;51.036;5.852;2023-03-20T07:03:08;11.07;67.63
65995;HTU21D;52764;51.036;5.852;2023-03-20T07:05:35;11.11;67.43
65995;HTU21D;52764;51.036;5.852;2023-03-20T07:08:04;11.12;67.44
65995;HTU21D;52764;51.036;5.852;2023-03-20T07:10:30;11.17;67.23
65995;HTU21D;52764;51.036;5.852;2023-03-20T07:12:56;11.22;67.14
65995;HTU21D;52764;51.036;5.852;2023-03-20T07:15:22;11.27;67.08
65995;HTU21D;52764;51.036;5.852;2023-03-20T07:17:49;11.33;66.91
65995;HTU21D;52764;51.036;5.852;2023-03-20T07:20:15;11.37;66.86
65995;HTU21D;52764;51.036;5.852;2023-03-20T07:22:42;11.42;66.72
65995;HTU21D;52764;51.036;5.852;2023-03-20T07:25:21;11.45;66.33
65995;HTU21D;52764;51.036;5.852;2023-03-20T07:27:47;11.51;66.21
65995;HTU21D;52764;51.036;5.852;2023-03-20T07:30:17;11.56;65.86
65995;HTU21D;52764;51.036;5.852;2023-03-20T07:32:44;11.57;65.74
65995;HTU21D;52764;51.036;5.852;2023-03-20T07:35:11;11.56;65.47
65995;HTU21D;52764;51.036;5.852;2023-03-20T07:37:40;11.61;65.46
65995;HTU21D;52764;51.036;5.852;2023-03-20T07:40:06;11.63;65.48
65995;HTU21D;52764;51.036;5.852;2023-03-20T07:42:34;11.71;65.46
65995;HTU21D;52764;51.036;5.852;2023-03-20T07:45:12;11.83;65.05
65995;HTU21D;52764;51.036;5.852;2023-03-20T07:47:43;11.92;72.64
65995;HTU21D;52764;51.036;5.852;2023-03-20T07:50:10;12.01;64.69
65995;HTU21D;52764;51.036;5.852;2023-03-20T07:52:36;12.14;64.25
65995;HTU21D;52764;51.036;5.852;2023-03-20T07:55:02;12.27;63.86
65995;HTU21D;52764;51.036;5.852;2023-03-20T07:57:28;12.38;63.52
65995;HTU21D;52764;51.036;5.852;2023-03-20T07:59:55;12.52;62.90
65995;HTU21D;52764;51.036;5.852;2023-03-20T08:02:21;12.62;62.39
65995;HTU21D;52764;51.036;5.852;2023-03-20T08:04:46;12.72;62.02
65995;HTU21D;52764;51.036;5.852;2023-03-20T08:07:12;12.86;61.33
65995;HTU21D;52764;51.036;5.852;2023-03-20T08:09:38;12.97;60.80
65995;HTU21D;52764;51.036;5.852;2023-03-20T08:12:04;13.08;60.48
65995;HTU21D;52764;51.036;5.852;2023-03-20T08:14:30;13.19;59.95
65995;HTU21D;52764;51.036;5.852;2023-03-20T08:16:57;13.23;59.28
65995;HTU21D;52764;51.036;5.852;2023-03-20T08:19:22;13.21;59.05
65995;HTU21D;52764;51.036;5.852;2023-03-20T08:21:49;13.14;58.77
65995;HTU21D;52764;51.036;5.852;2023-03-20T08:24:16;13.11;58.49
65995;HTU21D;52764;51.036;5.852;2023-03-20T08:26:42;13.04;58.51
65995;HTU21D;52764;51.036;5.852;2023-03-20T08:29:08;13.03;58.76
65995;HTU21D;52764;51.036;5.852;2023-03-20T08:31:34;13.02;59.00
65995;HTU21D;52764;51.036;5.852;2023-03-20T08:34:00;13.04;58.77
65995;HTU21D;52764;51.036;5.852;2023-03-20T08:36:26;13.05;58.57
65995;HTU21D;52764;51.036;5.852;2023-03-20T08:38:52;13.05;58.08
65995;HTU21D;52764;51.036;5.852;2023-03-20T08:41:18;13.02;57.77
65995;HTU21D;52764;51.036;5.852;2023-03-20T08:43:44;13.00;57.80
65995;HTU21D;52764;51.036;5.852;2023-03-20T08:46:10;13.02;57.45
65995;HTU21D;52764;51.036;5.852;2023-03-20T08:48:36;13.04;57.52
65995;HTU21D;52764;51.036;5.852;2023-03-20T08:51:02;13.12;57.48
65995;HTU21D;52764;51.036;5.852;2023-03-20T08:53:28;13.22;57.46
65995;HTU21D;52764;51.036;5.852;2023-03-20T08:55:54;13.35;57.91
65995;HTU21D;52764;51.036;5.852;2023-03-20T08:58:21;13.46;56.57
65995;HTU21D;52764;51.036;5.852;2023-03-20T09:00:48;13.52;55.98
65995;HTU21D;52764;51.036;5.852;2023-03-20T09:03:16;13.60;55.65
65995;HTU21D;52764;51.036;5.852;2023-03-20T09:05:44;13.70;55.45
65995;HTU21D;52764;51.036;5.852;2023-03-20T09:08:10;13.75;55.09
65995;HTU21D;52764;51.036;5.852;2023-03-20T09:10:36;13.80;54.91
65995;HTU21D;52764;51.036;5.852;2023-03-20T09:13:03;13.78;54.80
65995;HTU21D;52764;51.036;5.852;2023-03-20T09:15:29;13.79;54.71
65995;HTU21D;52764;51.036;5.852;2023-03-20T09:17:55;13.76;54.55
65995;HTU21D;52764;51.036;5.852;2023-03-20T09:20:20;13.65;54.62
65995;HTU21D;52764;51.036;5.852;2023-03-20T09:22:46;13.65;54.50
65995;HTU21D;52764;51.036;5.852;2023-03-20T09:25:12;13.60;54.45
65995;HTU21D;52764;51.036;5.852;2023-03-20T09:27:38;-13.84;54.77
65995;HTU21D;52764;51.036;5.852;2023-03-20T09:30:05;13.58;54.56
65995;HTU21D;52764;51.036;5.852;2023-03-20T09:32:32;13.49;54.58
65995;HTU21D;52764;51.036;5.852;2023-03-20T09:34:59;13.46;54.93
65995;HTU21D;52764;51.036;5.852;2023-03-20T09:37:26;13.44;54.89
65995;HTU21D;52764;51.036;5.852;2023-03-20T09:39:52;13.41;55.07
65995;HTU21D;52764;51.036;5.852;2023-03-20T09:42:52;13.46;55.08
65995;HTU21D;52764;51.036;5.852;2023-03-20T09:48:43;13.43;54.97
65995;HTU21D;52764;51.036;5.852;2023-03-20T09:51:09;13.45;54.99
65995;HTU21D;52764;51.036;5.852;2023-03-20T09:53:54;13.40;55.12
65995;HTU21D;52764;51.036;5.852;2023-03-20T09:56:25;13.29;55.52
65995;HTU21D;52764;51.036;5.852;2023-03-20T09:58:57;13.21;55.78
65995;HTU21D;52764;51.036;5.852;2023-03-20T10:04:10;13.04;55.81
65995;HTU21D;52764;51.036;5.852;2023-03-20T10:06:36;12.44;56.10
65995;HTU21D;52764;51.036;5.852;2023-03-20T10:09:25;6.78;56.36
65995;HTU21D;52764;51.036;5.852;2023-03-20T10:17:41;13.00;57.16
65995;HTU21D;52764;51.036;5.852;2023-03-20T10:20:28;13.07;57.03
65995;HTU21D;52764;51.036;5.852;2023-03-20T10:23:19;13.10;57.64
65995;HTU21D;52764;51.036;5.852;2023-03-20T10:25:51;13.14;58.58
65995;HTU21D;52764;51.036;5.852;2023-03-20T10:28:57;13.16;59.86
65995;HTU21D;52764;51.036;5.852;2023-03-20T10:37:25;13.12;61.92
65995;HTU21D;52764;51.036;5.852;2023-03-20T10:40:16;13.17;62.95
65995;HTU21D;52764;51.036;5.852;2023-03-20T10:42:50;13.32;62.49
65995;HTU21D;52764;51.036;5.852;2023-03-20T10:47:47;13.63;61.31
65995;HTU21D;52764;51.036;5.852;2023-03-20T10:50:17;13.77;60.32
65995;HTU21D;52764;51.036;5.852;2023-03-20T10:52:47;13.88;59.76
65995;HTU21D;52764;51.036;5.852;2023-03-20T10:55:25;14.09;59.29
65995;HTU21D;52764;51.036;5.852;2023-03-20T10:58:02;14.20;59.01
65995;HTU21D;52764;51.036;5.852;2023-03-20T11:00:29;14.27;58.06
65995;HTU21D;52764;51.036;5.852;2023-03-20T11:02:55;14.26;57.86
65995;HTU21D;52764;51.036;5.852;2023-03-20T11:05:33;14.33;57.58
65995;HTU21D;52764;51.036;5.852;2023-03-20T11:08:12;14.26;58.43
65995;HTU21D;52764;51.036;5.852;2023-03-20T11:10:41;14.23;57.40
65995;HTU21D;52764;51.036;5.852;2023-03-20T11:15:44;15.23;57.46
65995;HTU21D;52764;51.036;5.852;2023-03-20T11:18:11;15.21;56.77
65995;HTU21D;52764;51.036;5.852;2023-03-20T11:20:45;14.33;56.41
65995;HTU21D;52764;51.036;5.852;2023-03-20T11:23:16;14.30;56.80
65995;HTU21D;52764;51.036;5.852;2023-03-20T11:25:52;14.27;57.13
65995;HTU21D;52764;51.036;5.852;2023-03-20T11:28:54;14.18;57.45
65995;HTU21D;52764;51.036;5.852;2023-03-20T11:31:32;14.10;58.28
65995;HTU21D;52764;51.036;5.852;2023-03-20T11:36:56;14.18;58.99
65995;HTU21D;52764;51.036;5.852;2023-03-20T11:39:29;14.26;59.13
65995;HTU21D;52764;51.036;5.852;2023-03-20T11:42:00;14.43;59.49
65995;HTU21D;52764;51.036;5.852;2023-03-20T11:44:32;14.62;58.56
65995;HTU21D;52764;51.036;5.852;2023-03-20T11:47:13;14.77;58.49
65995;HTU21D;52764;51.036;5.852;2023-03-20T11:49:50;14.85;57.79
65995;HTU21D;52764;51.036;5.852;2023-03-20T11:52:38;14.79;57.53
65995;HTU21D;52764;51.036;5.852;2023-03-20T11:55:23;14.79;57.33
65995;HTU21D;52764;51.036;5.852;2023-03-20T11:57:58;14.84;56.94
65995;HTU21D;52764;51.036;5.852;2023-03-20T12:00:29;14.82;56.51
65995;HTU21D;52764;51.036;5.852;2023-03-20T12:03:00;14.85;56.32
65995;HTU21D;52764;51.036;5.852;2023-03-20T12:05:36;14.94;56.10
65995;HTU21D;52764;51.036;5.852;2023-03-20T12:08:17;14.98;55.96
65995;HTU21D;52764;51.036;5.852;2023-03-20T12:10:52;15.00;55.77
65995;HTU21D;52764;51.036;5.852;2023-03-20T12:13:27;14.95;55.61
65995;HTU21D;52764;51.036;5.852;2023-03-20T12:16:00;14.99;55.68
65995;HTU21D;52764;51.036;5.852;2023-03-20T12:18:42;15.04;55.65
65995;HTU21D;52764;51.036;5.852;2023-03-20T12:24:01;15.21;55.13
65995;HTU21D;52764;51.036;5.852;2023-03-20T12:26:45;15.34;54.71
65995;HTU21D;52764;51.036;5.852;2023-03-20T12:31:52;15.59;54.40
65995;HTU21D;52764;51.036;5.852;2023-03-20T12:34:28;15.75;53.59
65995;HTU21D;52764;51.036;5.852;2023-03-20T12:36:57;15.78;53.39
65995;HTU21D;52764;51.036;5.852;2023-03-20T12:39:37;15.83;53.20
65995;HTU21D;52764;51.036;5.852;2023-03-20T12:45:16;15.63;53.11
65995;HTU21D;52764;51.036;5.852;2023-03-20T12:56:22;15.68;53.38
65995;HTU21D;52764;51.036;5.852;2023-03-20T12:59:11;15.56;53.48
65995;HTU21D;52764;51.036;5.852;2023-03-20T13:02:01;15.44;53.45
65995;HTU21D;52764;51.036;5.852;2023-03-20T13:10:15;15.34;55.70
65995;HTU21D;52764;51.036;5.852;2023-03-20T13:21:15;15.39;54.31
65995;HTU21D;52764;51.036;5.852;2023-03-20T13:24:02;15.34;54.74
65995;HTU21D;52764;51.036;5.852;2023-03-20T13:26:39;15.41;54.97
65995;HTU21D;52764;51.036;5.852;2023-03-20T13:29:27;15.37;54.33
65995;HTU21D;52764;51.036;5.852;2023-03-20T13:37:48;15.32;55.14
65995;HTU21D;52764;51.036;5.852;2023-03-20T13:40:26;15.36;55.43
65995;HTU21D;52764;51.036;5.852;2023-03-20T13:43:20;15.39;55.00
65995;HTU21D;52764;51.036;5.852;2023-03-20T13:45:43;15.41;53.60
65995;HTU21D;52764;51.036;5.852;2023-03-20T13:51:23;15.52;54.87
65995;HTU21D;52764;51.036;5.852;2023-03-20T13:56:59;15.58;54.20
65995;HTU21D;52764;51.036;5.852;2023-03-20T13:59:45;15.55;54.39
65995;HTU21D;52764;51.036;5.852;2023-03-20T14:02:37;15.58;54.37
65995;HTU21D;52764;51.036;5.852;2023-03-20T14:05:20;15.60;54.49
65995;HTU21D;52764;51.036;5.852;2023-03-20T14:07:49;15.63;54.39
65995;HTU21D;52764;51.036;5.852;2023-03-20T14:15:18;15.77;53.99
65995;HTU21D;52764;51.036;5.852;2023-03-20T14:17:47;15.76;53.25
65995;HTU21D;52764;51.036;5.852;2023-03-20T14:20:31;15.27;52.66
65995;HTU21D;52764;51.036;5.852;2023-03-20T14:22:58;15.77;53.00
65995;HTU21D;52764;51.036;5.852;2023-03-20T14:25:28;15.72;52.85
65995;HTU21D;52764;51.036;5.852;2023-03-20T14:28:05;15.72;53.01
65995;HTU21D;52764;51.036;5.852;2023-03-20T14:35:48;15.74;53.06
65995;HTU21D;52764;51.036;5.852;2023-03-20T14:38:38;15.63;52.83
65995;HTU21D;52764;51.036;5.852;2023-03-20T14:41:18;15.56;52.95
65995;HTU21D;52764;51.036;5.852;2023-03-20T14:49:45;15.42;53.40
65995;HTU21D;52764;51.036;5.852;2023-03-20T14:57:49;15.24;53.83
65995;HTU21D;52764;51.036;5.852;2023-03-20T15:00:21;15.28;53.82
65995;HTU21D;52764;51.036;5.852;2023-03-20T15:02:51;15.37;54.04
65995;HTU21D;52764;51.036;5.852;2023-03-20T15:05:24;15.40;53.49
65995;HTU21D;52764;51.036;5.852;2023-03-20T15:07:56;15.28;53.52
65995;HTU21D;52764;51.036;5.852;2023-03-20T15:10:24;15.28;53.83
65995;HTU21D;52764;51.036;5.852;2023-03-20T15:12:51;15.28;53.79
65995;HTU21D;52764;51.036;5.852;2023-03-20T15:15:26;15.15;53.55
65995;HTU21D;52764;51.036;5.852;2023-03-20T15:17:52;15.09;54.13
65995;HTU21D;52764;51.036;5.852;2023-03-20T15:20:19;15.08;54.64
65995;HTU21D;52764;51.036;5.852;2023-03-20T15:22:57;13.90;55.23
65995;HTU21D;52764;51.036;5.852;2023-03-20T15:25:43;14.86;55.31
65995;HTU21D;52764;51.036;5.852;2023-03-20T15:28:16;14.72;55.52
65995;HTU21D;52764;51.036;5.852;2023-03-20T15:30:45;14.58;55.76
65995;HTU21D;52764;51.036;5.852;2023-03-20T15:33:23;14.53;56.18
65995;HTU21D;52764;51.036;5.852;2023-03-20T15:35:50;14.55;56.68
65995;HTU21D;52764;51.036;5.852;2023-03-20T15:38:17;14.58;56.56
65995;HTU21D;52764;51.036;5.852;2023-03-20T15:40:44;14.59;56.93
65995;HTU21D;52764;51.036;5.852;2023-03-20T15:43:23;14.58;57.32
65995;HTU21D;52764;51.036;5.852;2023-03-20T15:45:51;14.60;57.94
65995;HTU21D;52764;51.036;5.852;2023-03-20T15:48:23;14.71;58.50
65995;HTU21D;52764;51.036;5.852;2023-03-20T15:51:00;14.75;58.60
65995;HTU21D;52764;51.036;5.852;2023-03-20T15:53:37;14.75;59.03
65995;HTU21D;52764;51.036;5.852;2023-03-20T15:56:12;14.73;59.89
65995;HTU21D;52764;51.036;5.852;2023-03-20T15:58:41;14.70;60.31
65995;HTU21D;52764;51.036;5.852;2023-03-20T16:01:08;14.73;60.73
65995;HTU21D;52764;51.036;5.852;2023-03-20T16:03:37;14.73;61.10
65995;HTU21D;52764;51.036;5.852;2023-03-20T16:06:09;15.70;61.60
65995;HTU21D;52764;51.036;5.852;2023-03-20T16:08:36;14.71;61.50
65995;HTU21D;52764;51.036;5.852;2023-03-20T16:13:40;14.74;62.77
65995;HTU21D;52764;51.036;5.852;2023-03-20T16:16:15;14.75;62.84
65995;HTU21D;52764;51.036;5.852;2023-03-20T16:18:43;14.77;63.16
65995;HTU21D;52764;51.036;5.852;2023-03-20T16:21:35;14.81;63.50
65995;HTU21D;52764;51.036;5.852;2023-03-20T16:24:07;14.82;63.37
65995;HTU21D;52764;51.036;5.852;2023-03-20T16:26:37;14.75;61.85
65995;HTU21D;52764;51.036;5.852;2023-03-20T16:29:05;14.71;63.65
65995;HTU21D;52764;51.036;5.852;2023-03-20T16:31:34;14.74;64.05
65995;HTU21D;52764;51.036;5.852;2023-03-20T16:34:06;14.81;64.21
65995;HTU21D;52764;51.036;5.852;2023-03-20T16:36:35;14.83;64.26
65995;HTU21D;52764;51.036;5.852;2023-03-20T16:41:42;14.82;63.63
65995;HTU21D;52764;51.036;5.852;2023-03-20T16:44:20;-11.46;63.49
65995;HTU21D;52764;51.036;5.852;2023-03-20T16:47:15;14.74;62.63
65995;HTU21D;52764;51.036;5.852;2023-03-20T16:52:26;14.64;62.44
65995;HTU21D;52764;51.036;5.852;2023-03-20T16:54:55;14.58;62.37
65995;HTU21D;52764;51.036;5.852;2023-03-20T16:57:21;14.53;62.10
65995;HTU21D;52764;51.036;5.852;2023-03-20T16:59:47;14.49;62.21
65995;HTU21D;52764;51.036;5.852;2023-03-20T17:02:31;14.36;62.35
65995;HTU21D;52764;51.036;5.852;2023-03-20T17:05:03;14.30;63.09
65995;HTU21D;52764;51.036;5.852;2023-03-20T17:07:30;14.29;62.91
65995;HTU21D;52764;51.036;5.852;2023-03-20T17:10:16;14.24;63.14
65995;HTU21D;52764;51.036;5.852;2023-03-20T17:12:46;14.20;63.73
65995;HTU21D;52764;51.036;5.852;2023-03-20T17:15:17;14.75;63.86
65995;HTU21D;52764;51.036;5.852;2023-03-20T17:17:43;14.11;71.25
65995;HTU21D;52764;51.036;5.852;2023-03-20T17:20:22;14.12;64.15
65995;HTU21D;52764;51.036;5.852;2023-03-20T17:22:48;14.69;63.95
65995;HTU21D;52764;51.036;5.852;2023-03-20T17:25:14;14.10;63.75
65995;HTU21D;52764;51.036;5.852;2023-03-20T17:27:41;14.09;63.96
65995;HTU21D;52764;51.036;5.852;2023-03-20T17:30:19;14.09;63.87
65995;HTU21D;52764;51.036;5.852;2023-03-20T17:32:46;14.11;63.87
65995;HTU21D;52764;51.036;5.852;2023-03-20T17:35:13;14.71;63.98
65995;HTU21D;52764;51.036;5.852;2023-03-20T17:37:38;14.17;63.86
65995;HTU21D;52764;51.036;5.852;2023-03-20T17:40:06;14.17;64.12
65995;HTU21D;52764;51.036;5.852;2023-03-20T17:42:32;14.20;63.96
65995;HTU21D;52764;51.036;5.852;2023-03-20T17:44:59;14.19;63.49
65995;HTU21D;52764;51.036;5.852;2023-03-20T17:47:27;14.73;63.25
65995;HTU21D;52764;51.036;5.852;2023-03-20T17:49:53;14.10;63.34
65995;HTU21D;52764;51.036;5.852;2023-03-20T17:52:25;14.07;63.11
65995;HTU21D;52764;51.036;5.852;2023-03-20T17:54:52;14.04;63.07
65995;HTU21D;52764;51.036;5.852;2023-03-20T17:57:30;14.03;63.35
65995;HTU21D;52764;51.036;5.852;2023-03-20T17:59:56;14.07;62.97
65995;HTU21D;52764;51.036;5.852;2023-03-20T18:02:21;14.07;62.91
65995;HTU21D;52764;51.036;5.852;2023-03-20T18:04:48;14.10;62.61
65995;HTU21D;52764;51.036;5.852;2023-03-20T18:07:15;14.12;62.72
65995;HTU21D;52764;51.036;5.852;2023-03-20T18:09:42;14.12;62.70
65995;HTU21D;52764;51.036;5.852;2023-03-20T18:12:13;14.08;62.78